createdAt,value
2022-12-19T00:01:36.811Z,44.95
2022-12-19T00:04:08.216Z,45.13
2022-12-19T00:06:36.469Z,46.25
2022-12-19T00:09:04.079Z,47.15
2022-12-19T00:11:31.165Z,45.15
2022-12-19T00:13:59.478Z,48.15
2022-12-19T00:16:29.094Z,46.47
2022-12-19T00:19:00.055Z,48.10
2022-12-19T00:21:29.169Z,38.55
2022-12-19T00:23:57.054Z,46.25
2022-12-19T00:26:31.745Z,46.60
2022-12-19T00:29:06.767Z,46.47
2022-12-19T00:31:38.032Z,45.38
2022-12-19T00:34:05.374Z,51.38
2022-12-19T00:36:34.325Z,41.95
2022-12-19T00:39:07.724Z,49.45
2022-12-19T00:41:38.733Z,44.65
2022-12-19T00:44:12.382Z,39.83
2022-12-19T00:46:39.279Z,44.25
2022-12-19T00:49:06.849Z,48.33
2022-12-19T00:51:36.662Z,42.50
2022-12-19T00:54:06.661Z,46.28
2022-12-19T00:56:37.893Z,43.35
2022-12-19T00:59:06.305Z,42.88
2022-12-19T01:01:37.096Z,38.72
2022-12-19T01:06:53.215Z,45.22
2022-12-19T01:09:22.147Z,42.47
2022-12-19T01:12:07.380Z,44.45
2022-12-19T01:14:34.677Z,36.67
2022-12-19T01:17:01.531Z,39.78
2022-12-19T01:19:29.751Z,40.72
2022-12-19T01:21:56.507Z,42.78
2022-12-19T01:24:24.595Z,40.55
2022-12-19T01:26:52.036Z,40.58
2022-12-19T01:29:19.290Z,44.53
2022-12-19T01:31:46.665Z,49.65
2022-12-19T01:34:13.888Z,50.60
2022-12-19T01:36:41.066Z,48.30
2022-12-19T01:39:08.445Z,48.40
2022-12-19T01:41:36.271Z,44.67
2022-12-19T01:44:06.787Z,47.05
2022-12-19T01:46:37.243Z,43.10
2022-12-19T01:49:06.219Z,43.50
2022-12-19T01:51:41.320Z,42.22
2022-12-19T01:54:15.664Z,48.42
2022-12-19T01:56:47.575Z,48.28
2022-12-19T01:59:23.277Z,48.60
2022-12-19T02:01:57.233Z,49.95
2022-12-19T02:04:30.963Z,49.53
2022-12-19T02:07:06.305Z,47.95
2022-12-19T02:09:43.363Z,44.47
2022-12-19T02:12:10.563Z,56.20
2022-12-19T02:14:37.757Z,52.05
2022-12-19T02:17:26.670Z,51.15
2022-12-19T02:20:24.005Z,49.05
2022-12-19T02:23:18.561Z,46.97
2022-12-19T02:26:01.475Z,47.22
2022-12-19T02:28:47.871Z,52.03
2022-12-19T02:31:17.404Z,53.95
2022-12-19T02:33:47.305Z,50.70
2022-12-19T02:36:21.910Z,53.20
2022-12-19T02:38:56.878Z,50.35
2022-12-19T02:41:29.484Z,49.22
2022-12-19T02:43:59.217Z,49.08
2022-12-19T02:46:28.694Z,54.40
2022-12-19T02:48:56.012Z,54.22
2022-12-19T02:51:23.206Z,49.88
2022-12-19T02:53:51.244Z,52.13
2022-12-19T02:56:18.411Z,48.08
2022-12-19T02:59:06.638Z,50.80
2022-12-19T03:01:45.489Z,52.67
2022-12-19T03:04:45.577Z,50.15
2022-12-19T03:07:21.740Z,47.10
2022-12-19T03:10:09.054Z,44.33
2022-12-19T03:12:50.371Z,45.25
2022-12-19T03:15:17.741Z,49.83
2022-12-19T03:17:44.972Z,48.78
2022-12-19T03:20:26.106Z,51.42
2022-12-19T03:22:53.801Z,48.72
2022-12-19T03:25:22.503Z,46.33
2022-12-19T03:27:52.361Z,47.10
2022-12-19T03:30:19.608Z,43.90
2022-12-19T03:32:48.319Z,49.60
2022-12-19T03:35:22.981Z,51.83
2022-12-19T03:37:52.436Z,49.22
2022-12-19T03:40:24.654Z,44.28
2022-12-19T03:43:09.642Z,49.97
2022-12-19T03:45:59.933Z,35.10
2022-12-19T03:48:47.316Z,49.10
2022-12-19T03:51:38.181Z,50.60
2022-12-19T03:54:15.884Z,46.97
2022-12-19T03:56:56.197Z,50.50
2022-12-19T03:59:36.823Z,46.17
2022-12-19T04:02:05.215Z,56.13
2022-12-19T04:04:38.481Z,46.03
2022-12-19T04:07:07.779Z,53.55
2022-12-19T04:09:37.533Z,45.88
2022-12-19T04:12:10.156Z,45.72
2022-12-19T04:14:39.165Z,48.55
2022-12-19T04:17:13.344Z,46.55
2022-12-19T04:20:05.804Z,54.60
2022-12-19T04:22:54.623Z,53.00
2022-12-19T04:25:31.040Z,53.08
2022-12-19T04:28:03.275Z,42.33
2022-12-19T04:30:30.689Z,42.55
2022-12-19T04:33:04.402Z,50.13
2022-12-19T04:35:31.742Z,51.00
2022-12-19T04:37:59.212Z,51.97
2022-12-19T04:40:26.090Z,51.53
2022-12-19T04:42:53.269Z,45.50
2022-12-19T04:45:20.220Z,45.35
2022-12-19T04:47:47.851Z,46.17
2022-12-19T04:50:14.969Z,45.20
2022-12-19T04:52:41.709Z,43.05
2022-12-19T04:55:09.670Z,42.25
2022-12-19T04:57:36.468Z,45.42
2022-12-19T05:00:07.560Z,42.00
2022-12-19T05:02:38.156Z,41.65
2022-12-19T05:05:06.009Z,41.20
2022-12-19T05:07:32.895Z,38.25
2022-12-19T05:10:00.132Z,38.60
2022-12-19T05:12:29.156Z,37.42
2022-12-19T05:14:56.534Z,42.17
2022-12-19T05:17:23.338Z,38.17
2022-12-19T05:19:50.578Z,35.85
2022-12-19T05:22:17.598Z,38.35
2022-12-19T05:24:45.765Z,34.40
2022-12-19T05:27:15.537Z,40.88
2022-12-19T05:29:42.328Z,39.10
2022-12-19T05:32:09.202Z,38.83
2022-12-19T05:34:38.597Z,38.47
2022-12-19T05:37:05.827Z,43.05
2022-12-19T05:39:32.574Z,36.17
2022-12-19T05:41:59.784Z,43.03
2022-12-19T05:44:26.941Z,42.92
2022-12-19T05:46:54.780Z,32.72
2022-12-19T05:49:21.966Z,38.72
2022-12-19T05:51:53.500Z,39.67
2022-12-19T05:54:20.309Z,40.70
2022-12-19T05:56:47.137Z,44.47
2022-12-19T05:59:14.485Z,42.17
2022-12-19T06:01:42.629Z,43.80
2022-12-19T06:04:11.211Z,43.65
2022-12-19T06:06:38.837Z,37.88
2022-12-19T06:09:05.725Z,46.78
2022-12-19T06:11:32.649Z,39.13
2022-12-19T06:13:59.773Z,40.95
2022-12-19T06:16:26.974Z,40.72
2022-12-19T06:18:55.636Z,38.90
2022-12-19T06:21:23.289Z,38.58
2022-12-19T06:23:51.169Z,41.20
2022-12-19T06:26:20.538Z,39.47
2022-12-19T06:28:49.668Z,34.17
2022-12-19T06:31:17.530Z,36.05
2022-12-19T06:33:44.802Z,37.97
2022-12-19T06:36:24.471Z,42.65
2022-12-19T06:38:51.859Z,39.80
2022-12-19T06:41:38.846Z,39.72
2022-12-19T06:44:07.163Z,36.78
2022-12-19T06:46:35.525Z,37.65
2022-12-19T06:49:02.459Z,37.17
2022-12-19T06:51:29.860Z,35.72
2022-12-19T06:53:57.319Z,34.63
2022-12-19T06:56:24.850Z,38.97
2022-12-19T06:58:52.271Z,34.70
2022-12-19T07:01:46.300Z,35.88
2022-12-19T07:04:18.279Z,32.80
2022-12-19T07:06:49.200Z,36.15
2022-12-19T07:09:17.119Z,36.45
2022-12-19T07:11:44.420Z,36.50
2022-12-19T07:14:11.589Z,32.90
2022-12-19T07:16:38.552Z,34.42
2022-12-19T07:19:07.232Z,36.25
2022-12-19T07:21:36.398Z,34.53
2022-12-19T07:24:04.740Z,33.38
2022-12-19T07:26:32.526Z,35.13
2022-12-19T07:29:00.214Z,31.45
2022-12-19T07:31:27.020Z,36.85
2022-12-19T07:33:54.271Z,36.00
2022-12-19T07:36:21.637Z,31.15
2022-12-19T07:38:48.399Z,34.40
2022-12-19T07:41:15.576Z,36.45
2022-12-19T07:43:42.351Z,39.63
2022-12-19T07:46:09.235Z,35.80
2022-12-19T07:48:36.015Z,34.00
2022-12-19T07:51:05.920Z,31.48
2022-12-19T07:53:32.989Z,32.70
2022-12-19T07:55:59.871Z,32.15
2022-12-19T07:58:26.651Z,31.02
2022-12-19T08:00:57.927Z,35.10
2022-12-19T08:03:25.767Z,31.02
2022-12-19T08:05:52.647Z,35.45
2022-12-19T08:08:21.210Z,31.15
2022-12-19T08:10:48.000Z,31.50
2022-12-19T08:13:14.806Z,31.60
2022-12-19T08:15:41.576Z,31.00
2022-12-19T08:18:08.559Z,29.33
2022-12-19T08:20:35.763Z,30.45
2022-12-19T08:23:02.563Z,28.95
2022-12-19T08:25:29.698Z,29.13
2022-12-19T08:27:56.947Z,32.00
2022-12-19T08:30:24.599Z,30.25
2022-12-19T08:32:51.970Z,29.95
2022-12-19T08:35:18.706Z,29.33
2022-12-19T08:37:46.009Z,26.58
2022-12-19T08:40:13.035Z,29.83
2022-12-19T08:42:40.828Z,28.67
2022-12-19T08:45:08.395Z,25.55
2022-12-19T08:47:35.679Z,29.30
2022-12-19T08:50:04.428Z,30.02
2022-12-19T08:52:31.328Z,27.08
2022-12-19T08:54:58.095Z,29.55
2022-12-19T08:57:25.192Z,28.90
2022-12-19T08:59:51.982Z,29.85
2022-12-19T09:02:20.131Z,28.02
2022-12-19T09:05:58.153Z,28.63
2022-12-19T09:07:38.803Z,26.50
2022-12-19T09:10:07.243Z,28.27
2022-12-19T09:12:33.988Z,35.83
2022-12-19T09:15:00.823Z,29.73
2022-12-19T09:17:28.966Z,29.52
2022-12-19T09:19:56.765Z,32.08
2022-12-19T09:22:23.706Z,29.08
2022-12-19T09:24:57.961Z,28.23
2022-12-19T09:27:24.813Z,27.83
2022-12-19T09:29:52.107Z,26.27
2022-12-19T09:32:18.907Z,24.73
2022-12-19T09:34:45.631Z,25.33
2022-12-19T09:37:16.133Z,26.13
2022-12-19T09:39:46.350Z,26.63
2022-12-19T09:42:22.906Z,26.05
2022-12-19T09:44:56.129Z,28.45
2022-12-19T09:47:26.762Z,27.30
2022-12-19T09:49:56.582Z,24.40
2022-12-19T09:52:37.877Z,25.52
2022-12-19T09:55:22.533Z,22.60
2022-12-19T09:58:15.979Z,27.17
2022-12-19T10:00:47.737Z,22.45
2022-12-19T10:03:40.270Z,22.17
2022-12-19T10:07:09.202Z,25.52
2022-12-19T10:10:10.705Z,21.48
2022-12-19T10:12:51.439Z,20.60
2022-12-19T10:15:44.491Z,22.65
2022-12-19T10:18:56.981Z,22.80
2022-12-19T10:21:59.526Z,27.52
2022-12-19T10:24:35.010Z,19.88
2022-12-19T10:27:13.643Z,25.90
2022-12-19T10:30:14.896Z,22.70
2022-12-19T10:33:19.960Z,20.63
2022-12-19T10:35:57.535Z,24.05
2022-12-19T10:38:46.311Z,20.80
2022-12-19T10:41:25.889Z,22.20
2022-12-19T10:44:07.840Z,20.02
2022-12-19T10:46:46.714Z,21.60
2022-12-19T10:49:17.948Z,20.23
2022-12-19T10:52:02.513Z,19.33
2022-12-19T10:54:41.818Z,22.85
2022-12-19T10:57:30.071Z,19.73
2022-12-19T11:00:15.676Z,23.98
2022-12-19T11:02:48.640Z,19.70
2022-12-19T11:05:29.605Z,21.98
2022-12-19T11:08:03.450Z,22.55
2022-12-19T11:12:05.296Z,21.73
2022-12-19T11:19:29.680Z,20.33
2022-12-19T11:23:36.077Z,19.40
2022-12-19T11:29:30.549Z,18.27
2022-12-19T11:29:30.747Z,15.95
2022-12-19T11:29:37.372Z,14.18
2022-12-19T11:30:25.738Z,14.75
2022-12-19T11:34:16.706Z,14.48
2022-12-19T11:36:55.143Z,10.70
2022-12-19T11:39:30.179Z,11.00
2022-12-19T11:42:10.230Z,11.75
2022-12-19T11:45:02.949Z,10.63
2022-12-19T11:47:45.727Z,11.27
2022-12-19T11:50:22.304Z,13.40
2022-12-19T11:53:18.563Z,11.27
2022-12-19T11:56:15.833Z,12.95
2022-12-19T11:58:55.376Z,14.57
2022-12-19T12:01:37.840Z,13.43
2022-12-19T12:04:44.646Z,13.65
2022-12-19T12:07:39.037Z,15.93
2022-12-19T12:13:27.120Z,16.10
2022-12-19T12:22:32.894Z,14.95
2022-12-19T12:29:58.634Z,15.20
2022-12-19T12:31:09.514Z,16.88
2022-12-19T12:31:15.791Z,15.90
2022-12-19T12:31:48.722Z,17.08
2022-12-19T12:31:49.685Z,18.05
2022-12-19T12:35:38.053Z,16.10
2022-12-19T12:40:33.020Z,18.05
2022-12-19T12:43:34.554Z,17.85
2022-12-19T12:46:05.102Z,18.00
2022-12-19T12:48:35.767Z,16.27
2022-12-19T12:51:03.999Z,19.85
2022-12-19T12:53:38.387Z,19.40
2022-12-19T12:56:07.844Z,17.02
2022-12-19T12:58:47.014Z,20.92
2022-12-19T13:01:28.998Z,17.67
2022-12-19T13:04:06.049Z,21.52
2022-12-19T13:06:41.298Z,18.98
2022-12-19T13:09:20.382Z,20.50
2022-12-19T13:12:07.314Z,20.17
2022-12-19T13:14:34.212Z,18.58
2022-12-19T13:17:03.467Z,17.10
2022-12-19T13:19:35.345Z,19.17
2022-12-19T13:22:05.270Z,20.05
2022-12-19T13:24:52.600Z,18.00
2022-12-19T13:27:22.408Z,19.63
2022-12-19T13:30:20.137Z,21.20
2022-12-19T13:32:47.012Z,22.20
2022-12-19T13:36:10.821Z,18.58
2022-12-19T13:39:57.475Z,22.63
2022-12-19T13:41:50.199Z,21.23
2022-12-19T13:44:22.799Z,22.08
2022-12-19T13:46:50.213Z,24.20
2022-12-19T13:49:23.421Z,21.60
2022-12-19T13:51:57.292Z,22.55
2022-12-19T13:54:33.119Z,22.35
2022-12-19T13:57:03.887Z,20.95
2022-12-19T13:59:38.965Z,25.98
2022-12-19T14:02:46.596Z,24.00
2022-12-19T14:06:17.831Z,21.67
2022-12-19T14:08:25.412Z,24.75
2022-12-19T14:11:45.500Z,25.45
2022-12-19T14:14:27.640Z,25.58
2022-12-19T14:17:05.601Z,20.80
2022-12-19T14:19:39.381Z,20.13
2022-12-19T14:22:36.005Z,19.58
2022-12-19T14:25:45.227Z,24.45
2022-12-19T14:28:26.023Z,22.30
2022-12-19T14:30:57.550Z,25.35
2022-12-19T14:33:58.403Z,27.13
2022-12-19T14:36:29.779Z,24.13
2022-12-19T14:39:26.576Z,26.10
2022-12-19T14:42:08.719Z,21.15
2022-12-19T14:52:34.498Z,21.13
2022-12-19T14:52:50.940Z,24.77
2022-12-19T14:54:10.588Z,21.92
2022-12-19T14:54:42.092Z,22.50
2022-12-19T14:56:57.672Z,22.90
2022-12-19T14:59:05.602Z,21.88
2022-12-19T15:01:35.171Z,22.95
2022-12-19T15:04:51.681Z,23.85
2022-12-19T15:07:12.347Z,25.33
2022-12-19T15:11:03.269Z,27.38
2022-12-19T15:14:55.228Z,25.88
2022-12-19T15:16:06.243Z,22.08
2022-12-19T15:18:33.131Z,27.42
2022-12-19T15:21:06.374Z,25.75
2022-12-19T15:23:33.408Z,25.98
2022-12-19T15:26:08.173Z,23.27
2022-12-19T15:28:56.830Z,22.65
2022-12-19T15:31:43.078Z,26.27
2022-12-19T15:34:41.867Z,22.15
2022-12-19T15:37:14.590Z,20.20
2022-12-19T15:39:42.649Z,30.73
2022-12-19T15:42:28.280Z,22.15
2022-12-19T15:45:00.193Z,24.73
2022-12-19T15:47:36.024Z,21.67
2022-12-19T15:50:18.699Z,23.17
2022-12-19T15:52:46.906Z,23.20
2022-12-19T15:55:16.804Z,22.65
2022-12-19T15:57:51.674Z,22.25
2022-12-19T16:00:24.547Z,23.30
2022-12-19T16:05:42.234Z,23.48
2022-12-19T16:08:20.676Z,25.75
2022-12-19T16:11:01.107Z,24.67
2022-12-19T16:13:32.022Z,27.88
2022-12-19T16:15:59.490Z,26.63
2022-12-19T16:18:26.385Z,25.65
2022-12-19T16:20:54.983Z,25.73
2022-12-19T16:23:25.524Z,25.92
2022-12-19T16:25:53.945Z,29.05
2022-12-19T16:28:28.963Z,22.83
2022-12-19T16:30:58.162Z,23.02
2022-12-19T16:33:30.415Z,24.33
2022-12-19T16:36:06.583Z,23.95
2022-12-19T16:38:36.293Z,28.70
2022-12-19T16:41:03.779Z,24.83
2022-12-19T16:43:35.932Z,23.17
2022-12-19T16:46:06.562Z,23.80
2022-12-19T16:48:36.105Z,25.42
2022-12-19T16:51:03.370Z,22.80
2022-12-19T16:53:31.210Z,27.15
2022-12-19T16:55:59.983Z,22.23
2022-12-19T16:58:28.768Z,23.88
2022-12-19T17:00:56.261Z,21.02
2022-12-19T17:03:31.911Z,22.85
2022-12-19T17:05:59.157Z,24.00
2022-12-19T17:08:26.313Z,21.65
2022-12-19T17:10:54.465Z,22.27
2022-12-19T17:13:22.465Z,22.75
2022-12-19T17:15:56.375Z,23.58
2022-12-19T17:18:29.119Z,23.33
2022-12-19T17:20:56.464Z,20.90
2022-12-19T17:23:24.815Z,22.70
2022-12-19T17:25:55.257Z,23.58
2022-12-19T17:28:22.728Z,22.33
2022-12-19T17:30:52.903Z,20.83
2022-12-19T17:33:22.632Z,24.30
2022-12-19T17:35:49.372Z,23.50
2022-12-19T17:38:18.113Z,24.35
2022-12-19T17:40:45.262Z,25.08
2022-12-19T17:43:13.440Z,21.02
2022-12-19T17:45:41.006Z,20.83
2022-12-19T17:48:19.886Z,22.92
2022-12-19T17:50:46.744Z,21.58
2022-12-19T17:53:14.687Z,21.55
2022-12-19T17:55:42.452Z,20.25
2022-12-19T17:58:12.420Z,22.60
2022-12-19T18:00:40.885Z,23.10
2022-12-19T18:03:34.236Z,23.73
2022-12-19T18:06:01.165Z,22.48
2022-12-19T18:08:32.426Z,21.67
2022-12-19T18:11:02.985Z,21.67
2022-12-19T18:13:32.227Z,23.58
2022-12-19T18:16:02.746Z,21.83
2022-12-19T18:18:33.482Z,22.58
2022-12-19T18:21:01.346Z,25.55
2022-12-19T18:23:30.455Z,25.30
2022-12-19T18:26:01.880Z,23.73
2022-12-19T18:28:29.579Z,24.27
2022-12-19T18:31:04.325Z,24.88
2022-12-19T18:33:37.681Z,24.95
2022-12-19T18:36:05.901Z,24.00
2022-12-19T18:38:33.007Z,23.45
2022-12-19T18:40:59.868Z,24.02
2022-12-19T18:43:26.827Z,23.67
2022-12-19T18:45:53.967Z,23.08
2022-12-19T18:48:26.409Z,24.73
2022-12-19T18:50:55.834Z,24.02
2022-12-19T18:53:29.824Z,24.20
2022-12-19T18:56:03.036Z,24.27
2022-12-19T18:58:30.241Z,24.27
2022-12-19T19:00:59.777Z,24.00
2022-12-19T19:03:36.491Z,25.33
2022-12-19T19:06:05.962Z,23.05
2022-12-19T19:08:34.468Z,24.27
2022-12-19T19:11:01.675Z,24.27
2022-12-19T19:13:28.586Z,25.20
2022-12-19T19:15:59.110Z,23.02
2022-12-19T19:18:41.666Z,27.13
2022-12-19T19:21:11.253Z,23.10
2022-12-19T19:23:49.027Z,24.98
2022-12-19T19:26:15.954Z,56.58
2022-12-19T19:28:47.053Z,24.10
2022-12-19T19:31:19.865Z,27.02
2022-12-19T19:33:52.053Z,25.05
2022-12-19T19:36:23.192Z,25.92
2022-12-19T19:38:54.873Z,25.08
2022-12-19T19:41:22.801Z,24.45
2022-12-19T19:43:50.052Z,25.88
2022-12-19T19:46:16.979Z,26.70
2022-12-19T19:48:44.416Z,25.27
2022-12-19T19:51:14.627Z,24.67
2022-12-19T19:53:41.424Z,26.25
2022-12-19T19:56:08.261Z,26.60
2022-12-19T19:58:35.259Z,27.05
2022-12-19T20:01:09.027Z,25.70
2022-12-19T20:03:36.495Z,26.40
2022-12-19T20:06:04.019Z,28.20
2022-12-19T20:08:38.756Z,29.55
2022-12-19T20:11:06.487Z,25.40
2022-12-19T20:13:37.330Z,25.35
2022-12-19T20:16:12.518Z,24.60
2022-12-19T20:18:40.337Z,23.80
2022-12-19T20:21:13.132Z,23.65
2022-12-19T20:23:41.102Z,23.10
2022-12-19T20:26:08.315Z,24.67
2022-12-19T20:28:35.542Z,25.50
2022-12-19T20:31:02.747Z,26.88
2022-12-19T20:33:29.797Z,27.13
2022-12-19T20:35:58.352Z,23.83
2022-12-19T20:38:25.417Z,24.70
2022-12-19T20:40:56.097Z,21.10
2022-12-19T20:43:24.517Z,24.48
2022-12-19T20:45:52.162Z,27.10
2022-12-19T20:48:18.965Z,24.50
2022-12-19T20:50:46.270Z,25.88
2022-12-19T20:53:13.125Z,24.13
2022-12-19T20:55:40.145Z,24.17
2022-12-19T20:58:43.477Z,31.40
2022-12-19T21:01:23.228Z,22.50
2022-12-19T21:03:51.621Z,29.02
2022-12-19T21:06:21.376Z,27.88
2022-12-19T21:08:48.724Z,27.35
2022-12-19T21:11:18.821Z,24.95
2022-12-19T21:13:45.855Z,28.13
2022-12-19T21:16:16.091Z,25.30
2022-12-19T21:18:45.061Z,23.08
2022-12-19T21:21:18.217Z,26.17
2022-12-19T21:23:45.660Z,29.02
2022-12-19T21:26:14.787Z,23.88
2022-12-19T21:28:43.765Z,25.95
2022-12-19T21:31:17.093Z,23.60
2022-12-19T21:36:27.678Z,22.50
2022-12-19T21:38:57.617Z,25.92
2022-12-19T21:41:27.320Z,28.35
2022-12-19T21:43:56.655Z,25.48
2022-12-19T21:46:38.317Z,26.05
2022-12-19T21:49:09.120Z,27.65
2022-12-19T21:51:36.326Z,27.67
2022-12-19T21:54:05.507Z,29.45
2022-12-19T21:56:35.461Z,29.20
2022-12-19T21:59:05.459Z,28.40
2022-12-19T22:01:33.293Z,32.92
2022-12-19T22:04:07.604Z,28.50
2022-12-19T22:06:40.679Z,27.85
2022-12-19T22:09:12.094Z,28.15
2022-12-19T22:11:38.885Z,31.10
2022-12-19T22:14:06.955Z,28.73
2022-12-19T22:16:35.011Z,26.40
2022-12-19T22:19:02.307Z,29.17
2022-12-19T22:21:29.132Z,28.58
2022-12-19T22:24:04.090Z,26.38
2022-12-19T22:26:32.626Z,27.15
2022-12-19T22:28:59.533Z,28.85
2022-12-19T22:31:28.171Z,27.80
2022-12-19T22:33:58.271Z,27.98
2022-12-19T22:36:28.659Z,26.95
2022-12-19T22:38:57.021Z,26.20
2022-12-19T22:41:24.431Z,28.83
2022-12-19T22:43:52.300Z,27.67
2022-12-19T22:46:28.740Z,26.20
2022-12-19T22:48:58.293Z,27.40
2022-12-19T22:51:26.660Z,28.10
2022-12-19T22:53:54.710Z,23.33
2022-12-19T22:56:25.754Z,29.02
2022-12-19T22:58:55.372Z,28.92
2022-12-19T23:01:29.525Z,29.95
2022-12-19T23:03:59.422Z,30.70
2022-12-19T23:06:27.971Z,26.73
2022-12-19T23:08:55.163Z,25.35
2022-12-19T23:11:32.320Z,26.00
2022-12-19T23:14:00.557Z,26.65
2022-12-19T23:16:27.877Z,26.77
2022-12-19T23:18:54.738Z,30.60
2022-12-19T23:21:24.158Z,27.60
2022-12-19T23:23:54.155Z,27.65
2022-12-19T23:26:29.624Z,26.85
2022-12-19T23:29:02.485Z,25.20
2022-12-19T23:31:30.204Z,25.88
2022-12-19T23:33:58.904Z,22.52
2022-12-19T23:37:08.479Z,23.30
2022-12-19T23:39:14.869Z,25.98
2022-12-19T23:41:42.119Z,25.65
2022-12-19T23:44:09.862Z,23.08
2022-12-19T23:46:38.183Z,25.52
2022-12-19T23:49:05.136Z,22.05
2022-12-19T23:51:32.367Z,24.15
2022-12-19T23:53:59.613Z,26.63
2022-12-19T23:56:29.799Z,22.23
2022-12-19T23:58:56.654Z,23.73
